Time;durP1;ratioP1;P1;durP2;ratioP2;P2;SDS_P1;SDS_P2;PMS_P1;PMS_P2;Temp;Humidity;BMP_temperature;BMP_pressure;BME280_temperature;BME280_humidity;BME280_pressure;Samples;Min_cycle;Max_cycle;Signal;HPM_P1;HPM_P2
2022/08/22 07:24:13;;;;;;;8.00;4.15;;;;;;;22.51;57.23;93937.88;4878888;29;20276;-93
2022/08/22 07:27:37;;;;;;;4.13;3.25;;;;;;;22.30;57.06;93944.41;4879989;29;20208;-94
2022/08/22 07:30:24;;;;;;;5.70;3.40;;;;;;;21.91;58.70;93946.13;4866559;29;20248;-90
2022/08/22 07:33:38;;;;;;;7.05;3.67;;;;;;;22.25;58.33;93940.00;4875990;29;20227;-93
2022/08/22 07:36:45;;;;;;;3.67;3.38;;;;;;;22.38;58.53;93924.66;4880030;29;20212;-93
2022/08/22 07:39:49;;;;;;;6.20;3.95;;;;;;;22.31;58.59;93943.00;4864214;29;20285;-94
2022/08/22 07:42:47;;;;;;;5.95;3.88;;;;;;;22.53;56.55;93935.78;4863246;29;20249;-96
2022/08/22 07:45:37;;;;;;;10.45;4.45;;;;;;;22.11;58.34;93943.16;4865798;29;20671;-93
2022/08/22 07:48:24;;;;;;;5.03;4.15;;;;;;;22.24;60.36;93939.25;4867040;29;20280;-92
2022/08/22 07:51:17;;;;;;;6.07;5.35;;;;;;;22.55;54.17;93932.25;4877944;29;20611;-85
2022/08/22 07:54:07;;;;;;;6.05;5.18;;;;;;;22.66;54.03;93936.81;4878016;29;20209;-93
2022/08/22 07:57:25;;;;;;;5.45;4.78;;;;;;;22.58;56.17;93945.19;4866313;29;20209;-95
2022/08/22 08:00:19;;;;;;;6.03;5.15;;;;;;;22.36;55.93;93939.59;4858360;29;20221;-91
2022/08/22 08:03:06;;;;;;;6.78;6.10;;;;;;;22.42;55.65;93936.16;4851825;29;20209;-86
2022/08/22 08:05:52;;;;;;;7.95;6.40;;;;;;;22.77;55.30;93935.72;4875566;29;20311;-90
2022/08/22 08:08:43;;;;;;;7.15;6.45;;;;;;;23.03;55.47;93943.50;4862193;29;20239;-87
2022/08/22 08:11:33;;;;;;;11.43;6.40;;;;;;;22.57;57.64;93950.19;4865271;29;20288;-92
2022/08/22 08:14:20;;;;;;;6.15;5.55;;;;;;;22.29;57.68;93951.50;4871330;29;20213;-85
2022/08/22 08:17:21;;;;;;;5.95;5.35;;;;;;;22.15;58.02;93944.03;4855490;29;20273;-91
2022/08/22 08:20:10;;;;;;;6.63;5.85;;;;;;;23.01;55.77;93946.31;4841306;29;20314;-92
2022/08/22 08:22:58;;;;;;;7.82;5.53;;;;;;;23.42;55.45;93942.31;4844757;29;20578;-89
2022/08/22 08:26:17;;;;;;;7.60;5.50;;;;;;;22.80;58.43;93936.50;4860206;29;20257;-92
2022/08/22 08:29:03;;;;;;;7.35;5.22;;;;;;;22.15;59.38;93926.19;4840740;29;20297;-90
2022/08/22 08:31:47;;;;;;;8.95;5.72;;;;;;;21.87;59.27;93937.47;4847271;29;20292;-92
2022/08/22 08:34:32;;;;;;;5.50;5.00;;;;;;;22.26;59.03;93935.75;4870141;29;20277;-94
2022/08/22 08:37:21;;;;;;;5.45;4.90;;;;;;;22.88;57.80;93946.00;4862192;29;20201;-93
2022/08/22 08:40:34;;;;;;;4.57;4.13;;;;;;;22.68;57.09;93934.03;4853212;29;20216;-96
2022/08/22 08:43:40;;;;;;;7.35;4.38;;;;;;;23.65;51.81;93927.84;4849178;29;20277;-92
2022/08/22 08:46:30;;;;;;;7.15;4.10;;;;;;;23.35;52.22;93932.84;4841701;29;20562;-93
2022/08/22 08:49:54;;;;;;;9.23;3.60;;;;;;;22.51;50.95;93932.16;4857704;29;20252;-93
2022/08/22 08:52:53;;;;;;;5.00;3.70;;;;;;;23.62;50.99;93934.97;4841833;29;20221;-96
2022/08/22 08:56:21;;;;;;;4.60;3.33;;;;;;;23.51;49.10;93924.69;4850860;29;20243;-91
2022/08/22 08:59:43;;;;;;;4.82;3.60;;;;;;;23.91;48.16;93944.16;4855877;29;20253;-87
2022/08/22 09:02:45;;;;;;;5.15;4.00;;;;;;;23.47;49.61;93933.16;4856969;29;20315;-88
2022/08/22 09:05:53;;;;;;;5.60;3.50;;;;;;;23.57;51.06;93936.28;4846270;29;20424;-91
2022/08/22 09:09:13;;;;;;;4.38;3.45;;;;;;;23.76;47.11;93934.56;4846327;29;20213;-92
2022/08/22 09:12:18;;;;;;;5.47;3.30;;;;;;;22.86;47.38;93937.38;4858091;29;20220;-88
2022/08/22 09:15:21;;;;;;;3.85;3.13;;;;;;;22.60;49.43;93945.22;4859405;29;20303;-88
2022/08/22 09:18:44;;;;;;;4.65;3.40;;;;;;;22.18;49.82;93942.66;4870164;29;20229;-89
2022/08/22 09:21:58;;;;;;;5.45;3.78;;;;;;;22.97;49.75;93936.22;4865199;29;20248;-95
2022/08/22 09:25:16;;;;;;;10.60;3.90;;;;;;;24.38;47.83;93932.28;4881570;29;20240;-94
2022/08/22 09:28:14;;;;;;;5.43;3.90;;;;;;;23.94;47.62;93931.34;4862544;29;20254;-95
2022/08/22 09:31:23;;;;;;;5.75;4.22;;;;;;;24.47;47.94;93922.44;4856157;29;20260;-94
2022/08/22 09:34:16;;;;;;;6.28;3.75;;;;;;;25.02;46.07;93937.78;4848892;29;20340;-89
2022/08/22 09:37:34;;;;;;;6.40;3.70;;;;;;;24.71;47.67;93930.03;4845499;29;20197;-92
2022/08/22 09:40:38;;;;;;;3.88;3.45;;;;;;;25.05;48.00;93922.09;4847333;29;20205;-90
2022/08/22 09:43:48;;;;;;;5.45;3.78;;;;;;;25.37;48.60;93919.72;4842622;29;20225;-93
2022/08/22 09:47:02;;;;;;;8.18;3.40;;;;;;;26.26;45.63;93934.66;4842904;29;20276;-94
2022/08/22 09:50:11;;;;;;;5.00;3.70;;;;;;;26.02;44.40;93937.94;4853892;29;20197;-93
2022/08/22 09:53:20;;;;;;;6.95;4.10;;;;;;;25.16;45.98;93940.91;4860094;29;20276;-95
2022/08/22 09:56:41;;;;;;;7.25;2.97;;;;;;;25.71;43.53;93933.19;4865970;29;20213;-90
2022/08/22 10:00:03;;;;;;;4.22;2.88;;;;;;;25.12;45.57;93932.22;4863974;29;20286;-93
2022/08/22 10:03:03;;;;;;;3.95;3.45;;;;;;;24.30;47.69;93926.41;4814504;29;20266;-93
2022/08/22 10:06:14;;;;;;;4.07;3.22;;;;;;;24.86;46.32;93926.03;4846349;29;20208;-94
2022/08/22 10:09:28;;;;;;;3.38;3.05;;;;;;;23.82;46.61;93925.38;4845585;29;20228;-94
2022/08/22 10:12:50;;;;;;;6.43;3.50;;;;;;;25.05;47.22;93933.56;4841179;29;20293;-93
2022/08/22 10:15:44;;;;;;;3.40;3.10;;;;;;;25.02;48.22;93940.66;4842861;29;20284;-96
2022/08/22 10:18:39;;;;;;;6.55;3.78;;;;;;;24.22;51.32;93931.97;4842699;29;20221;-94
2022/08/22 10:21:26;;;;;;;3.65;3.08;;;;;;;25.18;48.71;93926.59;4865360;29;20225;-95
2022/08/22 10:24:22;;;;;;;5.22;3.53;;;;;;;24.38;48.16;93926.53;4849101;29;20257;-94
2022/08/22 10:27:36;;;;;;;3.70;2.88;;;;;;;23.85;50.26;93919.00;4849835;29;20212;-92
2022/08/22 10:30:34;;;;;;;5.32;3.50;;;;;;;24.65;48.76;93921.31;4864260;29;20215;-94
2022/08/22 10:33:57;;;;;;;5.55;3.55;;;;;;;24.35;47.33;93922.19;4860210;29;20209;-89
2022/08/22 10:37:17;;;;;;;7.88;3.30;;;;;;;24.02;47.39;93920.06;4847741;29;20336;-94
2022/08/22 10:40:11;;;;;;;7.85;3.08;;;;;;;25.32;45.35;93917.47;4864121;29;20236;-93
2022/08/22 10:43:35;;;;;;;8.23;3.15;;;;;;;26.37;42.36;93921.16;4857041;29;20225;-95
2022/08/22 10:47:12;;;;;;;4.53;2.95;;;;;;;26.56;41.71;93922.81;4829928;29;20202;-94
2022/08/22 10:50:18;;;;;;;6.63;2.95;;;;;;;25.67;42.12;93924.53;4827319;29;20221;-89
2022/08/22 10:53:32;;;;;;;7.78;3.10;;;;;;;26.09;42.16;93930.84;4812258;29;20319;-95
2022/08/22 10:56:36;;;;;;;11.25;3.28;;;;;;;26.31;41.06;93926.81;4862174;29;20283;-94
2022/08/22 10:59:26;;;;;;;7.53;2.97;;;;;;;25.39;44.52;93928.38;4848974;29;20201;-96
2022/08/22 11:02:38;;;;;;;6.45;3.00;;;;;;;24.91;45.09;93927.56;4858496;29;20282;-90
2022/08/22 11:05:29;;;;;;;5.70;3.25;;;;;;;24.65;46.24;93935.66;4848409;29;20252;-94
2022/08/22 11:08:25;;;;;;;7.60;3.30;;;;;;;24.58;45.94;93929.81;4863311;29;20236;-95
2022/08/22 11:11:28;;;;;;;3.42;2.78;;;;;;;26.00;42.26;93925.69;4859591;29;20232;-93
2022/08/22 11:14:35;;;;;;;20.00;3.80;;;;;;;24.61;43.05;93929.84;4860057;29;20205;-94
2022/08/22 11:17:19;;;;;;;9.40;3.20;;;;;;;26.32;40.76;93922.53;4852724;29;20543;-93
2022/08/22 11:20:16;;;;;;;3.78;3.03;;;;;;;26.37;39.62;93924.03;4862429;29;20220;-94
2022/08/22 11:23:39;;;;;;;3.95;3.30;;;;;;;25.06;42.12;93925.69;4845576;29;20228;-92
2022/08/22 11:26:59;;;;;;;12.02;3.28;;;;;;;25.92;41.52;93917.69;4824204;29;20222;-89
2022/08/22 11:29:54;;;;;;;7.57;3.67;;;;;;;26.73;40.57;93935.94;4856078;29;20239;-89
2022/08/22 11:32:58;;;;;;;6.38;3.38;;;;;;;26.14;40.51;93920.84;4840111;29;20359;-94
2022/08/22 11:36:07;;;;;;;8.18;2.78;;;;;;;26.50;40.08;93925.63;4867239;29;20200;-90
2022/08/22 11:39:14;;;;;;;7.30;2.97;;;;;;;26.10;38.74;93920.81;4836394;29;20268;-94
2022/08/22 11:42:12;;;;;;;6.43;3.15;;;;;;;25.86;41.21;93914.72;4851942;29;20293;-93
2022/08/22 11:45:00;;;;;;;2.42;2.22;;;;;;;26.90;38.60;93926.09;4859003;29;20747;-89
2022/08/22 11:48:03;;;;;;;3.50;2.33;;;;;;;27.07;37.74;93926.22;4859076;29;20284;-93
2022/08/22 11:51:12;;;;;;;4.47;2.50;;;;;;;25.80;37.18;93922.56;4839653;29;20684;-88
2022/08/22 11:54:16;;;;;;;5.28;2.60;;;;;;;24.75;39.43;93921.53;4850425;29;20214;-92
2022/08/22 11:57:12;;;;;;;4.47;2.72;;;;;;;25.86;40.08;93908.97;4852143;29;20705;-93
2022/08/22 12:00:39;;;;;;;4.40;2.30;;;;;;;26.30;38.81;93908.13;4859645;29;20242;-89
2022/08/22 12:03:46;;;;;;;4.03;2.45;;;;;;;26.35;39.13;93909.66;4759536;30;20208;-95
2022/08/22 12:06:54;;;;;;;3.85;2.40;;;;;;;25.83;37.77;93916.13;4755820;30;20221;-93
2022/08/22 12:09:50;;;;;;;5.75;2.63;;;;;;;26.04;37.18;93912.13;4847663;29;20273;-93
2022/08/22 12:12:42;;;;;;;3.45;2.40;;;;;;;26.09;36.85;93907.88;4861284;29;20276;-90
2022/08/22 12:16:07;;;;;;;5.43;2.92;;;;;;;26.43;35.22;93912.59;4841597;29;20292;-90
2022/08/22 12:19:00;;;;;;;2.72;1.90;;;;;;;26.19;35.75;93893.63;4842497;29;20220;-92
2022/08/22 12:22:02;;;;;;;4.28;2.42;;;;;;;26.43;35.20;93915.47;4860509;29;20237;-91
2022/08/22 12:25:16;;;;;;;4.63;2.22;;;;;;;26.92;34.21;93905.97;4846844;29;20221;-94
2022/08/22 12:28:21;;;;;;;8.13;2.78;;;;;;;27.42;36.64;93896.31;4800567;29;20235;-93
2022/08/22 12:31:27;;;;;;;9.95;2.38;;;;;;;27.62;34.53;93902.25;4855151;29;20264;-94
2022/08/22 12:34:37;;;;;;;5.65;2.17;;;;;;;27.28;35.80;93896.22;4833830;29;20300;-93
2022/08/22 12:37:48;;;;;;;2.67;1.88;;;;;;;26.87;37.12;93895.09;4865191;29;20316;-93
2022/08/22 12:40:38;;;;;;;5.05;2.00;;;;;;;27.37;34.57;93894.84;4824637;29;20702;-94
2022/08/22 12:43:35;;;;;;;4.43;2.08;;;;;;;26.92;35.85;93880.09;4851637;29;20296;-93
2022/08/22 12:46:51;;;;;;;3.70;1.85;;;;;;;26.82;35.53;93888.59;4860614;29;20288;-93
2022/08/22 12:50:03;;;;;;;3.58;1.77;;;;;;;26.21;35.77;93890.06;4841051;29;20716;-91
2022/08/22 12:53:06;;;;;;;5.10;2.30;;;;;;;26.21;35.17;93877.84;4846926;29;20213;-93
2022/08/22 12:56:19;;;;;;;3.85;1.70;;;;;;;27.02;34.51;93864.34;4862906;29;20291;-95
2022/08/22 12:59:22;;;;;;;3.00;1.80;;;;;;;26.28;36.53;93876.53;4848319;29;20700;-94
2022/08/22 13:02:15;;;;;;;6.20;1.73;;;;;;;26.73;35.29;93872.69;4842268;29;20316;-94
2022/08/22 13:05:20;;;;;;;5.03;2.05;;;;;;;26.39;35.32;93875.22;4862896;29;20209;-89
2022/08/22 13:08:20;;;;;;;4.13;1.80;;;;;;;26.14;37.16;93865.56;4861926;29;20209;-93
2022/08/22 13:11:08;;;;;;;2.83;1.77;;;;;;;26.48;36.18;93871.72;4834999;29;20213;-96
2022/08/22 13:13:59;;;;;;;3.25;1.75;;;;;;;26.97;33.66;93867.19;4847971;29;20289;-95
2022/08/22 13:16:48;;;;;;;4.85;1.83;;;;;;;26.84;34.55;93868.50;4858968;29;20308;-95
2022/08/22 13:19:58;;;;;;;3.65;1.50;;;;;;;26.38;32.82;93862.97;4844802;29;20249;-95
2022/08/22 13:22:42;;;;;;;3.38;1.63;;;;;;;26.75;32.01;93858.34;4840610;29;20316;-94
2022/08/22 13:25:29;;;;;;;2.03;1.38;;;;;;;27.18;32.37;93855.84;4830952;29;20758;-89
2022/08/22 13:28:13;;;;;;;3.47;1.70;;;;;;;26.25;34.66;93860.69;4850814;29;20213;-95
2022/08/22 13:31:00;;;;;;;3.13;1.77;;;;;;;26.58;31.84;93856.72;4850041;29;20216;-95
2022/08/22 13:33:46;;;;;;;3.88;1.52;;;;;;;26.75;31.51;93854.72;4837815;29;20205;-95
2022/08/22 13:36:42;;;;;;;5.63;1.58;;;;;;;26.98;32.29;93853.53;4871343;29;20276;-96
2022/08/22 13:39:37;;;;;;;6.25;2.20;;;;;;;26.71;32.23;93846.81;4865060;29;20205;-93
2022/08/22 13:42:25;;;;;;;3.90;1.70;;;;;;;26.05;31.99;93847.50;4860993;29;20309;-88
2022/08/22 13:45:14;;;;;;;4.60;1.60;;;;;;;26.73;32.81;93849.69;4846989;29;20211;-94
2022/08/22 13:48:11;;;;;;;2.63;1.40;;;;;;;26.67;32.85;93851.78;4850235;29;20253;-94
2022/08/22 13:51:04;;;;;;;3.50;1.60;;;;;;;26.66;33.88;93851.06;4846888;29;20213;-96
2022/08/22 13:54:04;;;;;;;4.60;1.92;;;;;;;26.30;34.60;93844.94;4858464;29;20632;-87
2022/08/22 13:57:03;;;;;;;2.30;1.52;;;;;;;26.40;34.01;93847.94;4858674;29;20223;-96
2022/08/22 14:00:07;;;;;;;5.82;1.70;;;;;;;26.53;34.64;93838.00;4835770;29;20274;-91
2022/08/22 14:03:10;;;;;;;6.18;1.40;;;;;;;25.69;34.20;93844.91;4849673;29;20224;-94
2022/08/22 14:05:58;;;;;;;2.85;1.38;;;;;;;26.22;33.94;93841.94;4866369;29;20289;-91
2022/08/22 14:08:44;;;;;;;3.40;1.60;;;;;;;27.27;34.21;93837.22;4851738;29;20424;-93
2022/08/22 14:11:47;;;;;;;4.68;1.20;;;;;;;26.79;33.51;93840.38;4862791;29;20277;-87
2022/08/22 14:14:34;;;;;;;4.03;1.33;;;;;;;26.92;31.97;93842.69;4848761;29;20235;-90
2022/08/22 14:17:23;;;;;;;4.68;1.33;;;;;;;26.47;32.02;93840.81;4853219;29;20232;-94
2022/08/22 14:20:14;;;;;;;4.88;1.60;;;;;;;27.03;31.22;93834.16;4853089;29;20214;-95
2022/08/22 14:23:16;;;;;;;3.88;1.58;;;;;;;27.06;32.71;93839.22;4869129;29;20301;-96
2022/08/22 14:26:01;;;;;;;3.22;1.40;;;;;;;26.82;29.92;93831.09;4868071;29;20280;-96
2022/08/22 14:28:45;;;;;;;2.50;1.33;;;;;;;26.95;31.40;93835.53;4868068;29;20209;-93
2022/08/22 14:31:30;;;;;;;2.70;1.40;;;;;;;26.22;31.40;93839.09;4861709;29;20295;-90
2022/08/22 14:34:16;;;;;;;3.15;1.30;;;;;;;26.60;32.28;93825.16;4841050;29;20216;-95
2022/08/22 14:37:21;;;;;;;1.95;1.23;;;;;;;26.95;30.40;93829.78;4851460;29;20217;-95
2022/08/22 14:40:27;;;;;;;2.80;1.38;;;;;;;26.57;30.25;93832.28;4868030;29;20251;-94
2022/08/22 14:43:23;;;;;;;4.72;1.60;;;;;;;27.06;30.55;93827.72;4851131;29;20233;-96
2022/08/22 14:46:13;;;;;;;3.72;1.23;;;;;;;26.69;31.05;93832.41;4864837;29;20220;-93
2022/08/22 14:49:19;;;;;;;5.22;1.60;;;;;;;26.42;33.69;93833.56;4858457;29;20223;-95
2022/08/22 14:52:24;;;;;;;2.53;1.10;;;;;;;26.62;33.28;93833.78;4860618;29;20200;-93
2022/08/22 14:55:22;;;;;;;6.20;1.65;;;;;;;25.63;33.09;93826.88;4855030;29;20224;-88
2022/08/22 14:58:14;;;;;;;3.15;1.60;;;;;;;25.70;33.92;93828.41;4854545;29;20265;-88
2022/08/22 15:01:14;;;;;;;3.58;1.60;;;;;;;25.84;34.15;93837.19;4834477;29;20241;-94
2022/08/22 15:04:13;;;;;;;4.30;1.50;;;;;;;25.81;34.37;93838.59;4853690;29;20303;-88
2022/08/22 15:06:57;;;;;;;2.60;1.25;;;;;;;25.93;34.22;93832.25;4856119;29;20197;-86
2022/08/22 15:09:57;;;;;;;3.00;1.33;;;;;;;25.77;34.84;93838.53;4881322;29;20209;-87
2022/08/22 15:12:50;;;;;;;4.85;1.30;;;;;;;25.30;33.72;93835.03;4860413;29;20761;-86
2022/08/22 15:15:41;;;;;;;4.47;1.40;;;;;;;25.39;33.49;93833.69;4868688;29;20257;-91
2022/08/22 15:18:28;;;;;;;2.13;1.00;;;;;;;25.64;33.70;93834.78;4850269;29;20244;-96
2022/08/22 15:21:29;;;;;;;3.15;1.17;;;;;;;25.57;32.12;93826.78;4852805;29;20221;-93
2022/08/22 15:24:17;;;;;;;4.82;1.15;;;;;;;25.44;33.07;93833.75;4853981;29;20205;-95
2022/08/22 15:27:04;;;;;;;2.75;1.35;;;;;;;25.08;33.30;93834.66;4850785;29;20232;-86
2022/08/22 15:29:54;;;;;;;3.42;1.20;;;;;;;25.00;34.74;93837.41;4840235;29;20209;-87
2022/08/22 15:32:41;;;;;;;3.67;1.35;;;;;;;25.14;33.92;93831.88;4837094;29;20210;-96
2022/08/22 15:35:33;;;;;;;2.95;1.35;;;;;;;25.27;32.97;93838.53;4855165;29;20256;-96
2022/08/22 15:38:32;;;;;;;2.00;0.88;;;;;;;25.47;31.76;93832.38;4864828;29;20581;-93
2022/08/22 15:41:32;;;;;;;2.47;1.40;;;;;;;25.34;32.51;93846.53;4849939;29;20253;-96
2022/08/22 15:44:19;;;;;;;4.10;1.23;;;;;;;24.44;33.50;93837.88;4863519;29;20272;-95
2022/08/22 15:47:23;;;;;;;4.57;1.20;;;;;;;25.10;33.14;93842.59;4850658;29;20222;-93
2022/08/22 15:50:26;;;;;;;1.80;1.20;;;;;;;24.85;32.87;93838.56;4863427;29;20213;-90
2022/08/22 15:53:19;;;;;;;1.27;0.95;;;;;;;25.03;33.57;93841.75;4849270;29;20196;-89
2022/08/22 15:56:09;;;;;;;3.13;1.10;;;;;;;25.17;31.63;93850.59;4864126;29;20216;-96
2022/08/22 15:59:25;;;;;;;1.70;1.20;;;;;;;24.76;32.94;93842.72;4865621;29;20212;-96
2022/08/22 16:02:25;;;;;;;3.65;1.38;;;;;;;24.70;32.63;93842.59;4859166;29;20225;-87
2022/08/22 16:05:10;;;;;;;3.00;1.27;;;;;;;24.41;31.37;93839.25;4837320;29;20217;-92
2022/08/22 16:08:04;;;;;;;3.30;1.10;;;;;;;24.59;32.86;93835.97;4863246;29;20229;-96
2022/08/22 16:11:12;;;;;;;2.63;1.15;;;;;;;24.91;32.78;93841.56;4829383;29;20301;-96
2022/08/22 16:14:34;;;;;;;3.97;0.73;;;;;;;24.75;31.98;93836.25;4853941;29;20311;-96
2022/08/22 16:17:27;;;;;;;3.38;1.55;;;;;;;24.82;31.89;93839.94;4863909;29;20272;-95
2022/08/22 16:20:11;;;;;;;3.85;1.13;;;;;;;24.84;31.57;93840.72;4837262;29;20628;-96
2022/08/22 16:22:56;;;;;;;2.05;1.02;;;;;;;24.92;31.42;93831.56;4847600;29;20284;-95
2022/08/22 16:25:46;;;;;;;1.77;0.95;;;;;;;24.67;33.29;93847.59;4835497;29;20648;-96
2022/08/22 16:28:45;;;;;;;4.78;1.23;;;;;;;24.89;31.56;93841.53;4863628;29;20406;-95
2022/08/22 16:31:46;;;;;;;1.80;1.20;;;;;;;24.85;32.77;93839.31;4879309;29;20209;-96
2022/08/22 16:34:36;;;;;;;2.55;1.20;;;;;;;24.82;33.00;93839.94;4873946;29;20192;-96
2022/08/22 16:37:23;;;;;;;2.22;1.20;;;;;;;24.50;34.39;93845.88;4852199;29;20238;-96
2022/08/22 16:40:12;;;;;;;2.95;1.42;;;;;;;24.48;34.60;93849.41;4851203;29;20205;-95
2022/08/22 16:43:14;;;;;;;3.30;1.40;;;;;;;23.92;37.09;93854.03;4847712;29;20248;-96
2022/08/22 16:45:58;;;;;;;4.25;1.70;;;;;;;23.72;37.95;93846.47;4847815;29;20291;-93
2022/08/22 16:48:44;;;;;;;4.32;1.58;;;;;;;23.67;37.24;93841.34;4835458;29;20212;-89
2022/08/22 16:51:28;;;;;;;6.97;1.55;;;;;;;23.87;38.29;93846.78;4855803;29;20221;-93
2022/08/22 16:54:43;;;;;;;2.95;1.08;;;;;;;23.60;38.53;93854.81;4846864;29;20707;-88
2022/08/22 16:57:52;;;;;;;2.60;1.20;;;;;;;23.34;38.81;93862.78;4862332;29;20281;-89
2022/08/22 17:00:54;;;;;;;3.65;1.30;;;;;;;23.22;39.04;93868.22;4862515;29;20224;-88
2022/08/22 17:04:11;;;;;;;6.80;1.63;;;;;;;23.32;39.48;93857.03;4840029;29;20216;-94
2022/08/22 17:07:26;;;;;;;1.77;1.35;;;;;;;23.19;39.26;93858.16;4847768;29;20252;-91
2022/08/22 17:10:21;;;;;;;2.30;1.45;;;;;;;22.98;40.22;93856.94;4839237;29;20311;-93
2022/08/22 17:13:08;;;;;;;2.35;1.30;;;;;;;22.77;40.04;93864.31;4850138;29;20679;-91
2022/08/22 17:16:06;;;;;;;1.95;1.20;;;;;;;22.71;40.14;93864.13;4858746;29;20215;-88
2022/08/22 17:19:09;;;;;;;2.97;1.30;;;;;;;22.78;39.51;93860.03;4861580;29;20235;-89
2022/08/22 17:21:59;;;;;;;6.10;1.63;;;;;;;22.54;40.37;93862.97;4865892;29;20245;-92
2022/08/22 17:24:54;;;;;;;4.32;1.27;;;;;;;22.52;39.93;93860.09;4836876;29;20213;-92
2022/08/22 17:27:42;;;;;;;2.58;1.50;;;;;;;22.49;40.63;93866.41;4846686;29;20215;-91
2022/08/22 17:30:40;;;;;;;2.08;1.20;;;;;;;22.21;40.88;93865.66;4849077;29;20207;-91
2022/08/22 17:33:39;;;;;;;8.40;1.45;;;;;;;21.97;41.96;93865.75;4848415;29;20281;-94
2022/08/22 17:36:36;;;;;;;2.55;1.30;;;;;;;21.98;42.82;93865.03;4863847;29;20213;-95
2022/08/22 17:39:46;;;;;;;4.53;1.65;;;;;;;21.90;43.53;93875.50;4832551;29;20313;-91
2022/08/22 17:42:34;;;;;;;6.15;1.92;;;;;;;21.59;45.19;93874.63;4846177;29;20695;-90
2022/08/22 17:45:25;;;;;;;4.18;1.63;;;;;;;21.56;45.50;93875.22;4843409;29;20663;-93
2022/08/22 17:48:39;;;;;;;5.10;1.60;;;;;;;21.37;46.79;93871.09;4852729;29;20262;-94
2022/08/22 17:51:29;;;;;;;3.88;1.70;;;;;;;21.04;47.51;93877.91;4860506;29;20216;-96
2022/08/22 17:54:35;;;;;;;3.17;1.63;;;;;;;21.11;47.76;93885.22;4852675;29;20304;-89
2022/08/22 17:57:27;;;;;;;3.45;2.00;;;;;;;21.02;48.19;93883.53;4847749;29;20671;-94
2022/08/22 18:00:30;;;;;;;7.13;1.92;;;;;;;20.96;48.51;93894.72;4876107;29;20653;-91
2022/08/22 18:03:23;;;;;;;3.42;1.92;;;;;;;20.84;49.05;93897.19;4843388;29;20328;-95
2022/08/22 18:06:15;;;;;;;2.83;1.77;;;;;;;20.64;49.86;93893.66;4859756;29;20293;-96
2022/08/22 18:09:08;;;;;;;3.00;1.73;;;;;;;20.55;50.02;93887.69;4860951;29;20217;-95
2022/08/22 18:12:18;;;;;;;3.78;1.77;;;;;;;20.27;50.75;93900.22;4846895;29;20198;-96
2022/08/22 18:15:24;;;;;;;7.25;1.80;;;;;;;20.28;50.00;93902.41;4862128;29;20213;-95
2022/08/22 18:18:12;;;;;;;5.38;1.90;;;;;;;20.10;50.21;93905.34;4850183;29;20236;-96
2022/08/22 18:21:06;;;;;;;4.85;1.98;;;;;;;19.99;49.83;93905.66;4832853;29;20206;-96
2022/08/22 18:23:56;;;;;;;2.57;1.83;;;;;;;19.89;50.25;93902.41;4864622;29;20213;-96
2022/08/22 18:27:18;;;;;;;4.60;1.67;;;;;;;19.76;50.53;93895.56;4860809;29;20581;-96
2022/08/22 18:30:19;;;;;;;2.40;1.88;;;;;;;19.63;50.66;93900.06;4877052;29;20205;-95
2022/08/22 18:33:17;;;;;;;4.60;1.40;;;;;;;19.42;50.90;93902.78;4842450;29;20209;-95
2022/08/22 18:36:12;;;;;;;4.80;1.60;;;;;;;19.31;51.28;93898.84;4851501;29;20687;-96
2022/08/22 18:39:04;;;;;;;2.17;1.50;;;;;;;18.90;53.31;93905.75;4843531;29;20201;-95
2022/08/22 18:42:05;;;;;;;4.87;1.80;;;;;;;18.82;53.28;93902.63;4831246;29;20224;-94
2022/08/22 18:44:50;;;;;;;2.43;1.30;;;;;;;18.87;52.95;93904.22;4854849;29;20219;-95
2022/08/22 18:47:35;;;;;;;2.70;1.50;;;;;;;18.85;52.45;93911.94;4846370;29;20216;-94
2022/08/22 18:50:32;;;;;;;3.15;1.73;;;;;;;18.69;53.25;93905.59;4858075;29;20209;-95
2022/08/22 18:53:38;;;;;;;2.67;1.53;;;;;;;18.78;52.82;93916.63;4852211;29;20189;-95
2022/08/22 18:56:48;;;;;;;2.87;1.57;;;;;;;18.35;54.47;93908.44;4837046;29;20220;-94
2022/08/22 19:00:15;;;;;;;5.73;1.50;;;;;;;18.28;54.80;93914.50;4842017;29;20216;-94
2022/08/22 19:03:27;;;;;;;3.40;1.37;;;;;;;18.25;55.22;93921.47;4863801;29;20696;-95
2022/08/22 19:06:27;;;;;;;3.03;1.27;;;;;;;18.01;55.99;93919.06;4842079;29;20233;-94
2022/08/22 19:09:39;;;;;;;2.53;1.57;;;;;;;18.17;55.16;93919.00;4868604;29;20197;-92
2022/08/22 19:12:59;;;;;;;2.93;1.60;;;;;;;18.04;55.92;93920.59;4876818;29;20244;-94
2022/08/22 19:16:15;;;;;;;4.90;1.60;;;;;;;18.13;56.19;93930.91;4853974;29;20273;-93
2022/08/22 19:19:06;;;;;;;2.70;1.80;;;;;;;17.81;57.50;93929.50;4846339;29;20277;-94
2022/08/22 19:22:19;;;;;;;3.40;1.90;;;;;;;17.59;57.91;93939.81;4845156;29;20260;-94
2022/08/22 19:25:19;;;;;;;2.27;1.77;;;;;;;17.94;56.72;93934.34;4854213;29;20212;-94
2022/08/22 19:28:08;;;;;;;3.10;1.90;;;;;;;17.83;57.59;93940.94;4836018;29;20205;-94
2022/08/22 19:31:41;;;;;;;5.20;1.70;;;;;;;17.54;57.89;93943.81;4861117;29;20636;-95
